Chippewa County International Airport

Airport
ICAO code: 
KCIU
Summary
ICAO Region: 
NAM
Territory: 
Location: 
Sault Ste. Marie, Michigan,
Coordinates: 
Aerial View: 
46° 15' 0.324" N, 84° 28' 18.696" W
Airport CFIT: 
Altimeter Temperature Error Correction
Airport GND: 
Aircraft Ground De/Anti Icing
Airport RE: 
Landing on Contaminated Runways
Airport WX: 
Lake Effect Snow
Metar
Observation
KCIU 070815Z AUTO 29006KT 5SM -SN BR SCT013 OVC020 M12/M13 A3005 RMK AO2 P0000 FZRANO
Station
Sault Ste Marie, Chippewa County International Airport
Date/Time
2021-12-07 08:15:00
Wind direction
290°
Wind speed
06 kts
Lowest cloud amount
scattered clouds
Temperature
-12°C
Dew point
-13°C
Humidity
92%
Weather condition
light

Description

Chippewa County International Airport is a public use airport located 28 km south of the central business district of Sault Ste. Marie, in Chippewa County, Michigan.

Climatology

Humid Continental climate (Köppen climate classification Dfb) - Variable weather patterns and a large seasonal temperature variance. Summers are often warm and humid with frequent thunderstorms and winters can be very cold with frequent snowfall and persistent snow cover. Sault Ste. Marie is one of the snowiest places in Michigan, receiving an average of 128 inches (3.3 m) of snow a year.

Runways

Designator Length Width Surface Rops
9/27 1524 23 ASP Yes/Yes
16/34 2195 61 CON Yes/Yes
Airport map: 
Aerial View: 

SKYbrary Partners:

Safety knowledge contributed by: